Weather observations for the past three days for
Faith Ranch Airport
Metric (Imperial)
Date Time (cdt) Wind (kph) Vis. (km) Weather Sky Cond. Temperature (ºC) Relative Humidity Wind Chill (°C) Heat Index (°C) Pressure Precipitation (cm)
Air Dwpt 6 hour altimeter (cm) sea level (mb) 1 hr 3 hr 6 hr
Max. Min.
07 23:15 NE 13 14.48 Overcast OVC023 21 17 78% 76.1 0.0
07 22:55 NE 13 12.87 Overcast OVC026 22 17 73% 76.1 0.0
07 22:35 N 7 14.48 Overcast OVC027 22 17 73% 76.2 0.0
07 22:15 NW 6 12.87 Overcast OVC027 22 17 73% 76.2 0.0
07 21:55 N 9 12.87 Overcast OVC026 22 17 73% 76.15 0.0
07 21:35 NE 11 12.87 Overcast OVC026 22 17 73% 76.1 0.0
07 21:15 NE 9 14.48 Overcast OVC025 22 17 73% 76.07 0.0
07 20:55 NE 13 12.87 Overcast OVC024 22 17 73% 76.02 0.0
07 20:35 NE 11 14.48 Overcast OVC024 22 17 73% 76.02 0.0
07 20:15 N 13 11.27 Overcast OVC025 22 17 73% 76.02 0.0
07 19:55 NE 17 11.27 Overcast OVC026 23 17 69% 76.02 0.0
07 19:35 NE 13 11.27 Overcast OVC026 23 17 69% 76.05 0.0
07 18:55 E 13 11.27 Overcast OVC023 23 17 69% 76.05 0.0
07 18:35 E 15 G 26 11.27 Mostly Cloudy BKN022 23 18 74% 76.02 0.0
07 18:15 NE 20 11.27 Mostly Cloudy BKN022 23 17 69% 76 0.0
07 17:55 NE 22 G 37 11.27 Fair CLR 23 17 69% 76 0.0
07 17:35 NE 24 9.66 Fair with Haze CLR 23 17 69% 76.02 0.0
07 17:15 NE 19 G 33 9.66 Fair with Haze CLR 23 17 69% 76.02 0.0
07 16:55 N 22 G 31 11.27 A Few Clouds FEW025 23 17 69% 76.05 0.0
07 16:35 NE 20 9.66 Mostly Cloudy with Haze BKN025 22 17 73% 76.1 0.0
07 16:15 N 19 9.66 Overcast with Haze OVC025 22 17 73% 76.12 0.0
07 15:55 N 17 11.27 Overcast OVC025 22 17 73% 76.17 0.0
07 15:35 N 15 G 24 9.66 Overcast with Haze OVC025 23 17 69% 76.17 0.0
07 15:15 NE 17 9.66 Overcast with Haze OVC024 23 17 69% 76.17 0.0
07 14:55 NE 20 9.66 Mostly Cloudy with Haze BKN023 23 17 69% 76.15 0.0
07 14:35 NE 20 G 30 9.66 A Few Clouds with Haze FEW021 23 17 69% 76.15 0.0
07 14:15 NE 19 9.66 Mostly Cloudy with Haze BKN021 23 17 69% 76.15 0.0
07 13:35 NE 13 G 26 9.66 Overcast with Haze OVC021 22 17 73% 76.2 0.0
07 13:15 NE 13 G 28 9.66 Overcast with Haze OVC021 22 17 73% 76.23 0.0
07 12:55 NE 15 G 26 8.05 Overcast with Haze OVC021 22 17 73% 76.23 0.0
07 12:35 E 28 8.05 Overcast with Haze OVC018 22 18 78% 76.17 0.0
07 12:15 NE 26 G 39 8.05 Overcast with Haze OVC016 23 18 74% 76.17 0.0
07 11:55 E 24 6.44 Overcast with Haze OVC015 21 18 83% 76.2 0.0
07 11:35 E 20 8.05 Overcast with Haze OVC016 22 18 78% 76.23 0.0
07 11:15 E 26 6.44 Overcast with Haze OVC015 22 18 78% 76.2 0.0
07 10:55 NE 19 6.44 Overcast with Haze OVC015 22 18 78% 76.23 0.0
07 10:35 E 15 6.44 Overcast with Haze OVC016 22 18 78% 76.2 0.0
07 10:15 E 17 11.27 Overcast OVC016 22 18 78% 76.2 0.0
07 09:55 E 19 11.27 Overcast OVC014 22 18 78% 76.17 0.0
07 09:35 E 17 9.66 Overcast with Haze OVC014 21 18 83% 76.2 0.0
07 09:15 NE 19 9.66 Overcast with Haze OVC014 21 18 83% 76.2 0.0
07 08:55 NE 15 9.66 Overcast with Haze OVC013 21 18 83% 76.17 0.0
07 08:35 E 17 9.66 Overcast with Haze OVC013 21 18 83% 76.15 0.0
07 08:15 E 13 G 26 11.27 Overcast OVC013 21 18 83% 76.12 0.0
07 07:55 NE 17 G 28 9.66 Mostly Cloudy with Haze BKN012 BKN031 21 18 83% 76.1 0.0
07 07:35 NE 13 G 22 11.27 Mostly Cloudy BKN011 20 18 88% 76.07 0.0
07 07:15 NE 20 11.27 Mostly Cloudy BKN010 BKN030 21 18 83% 76.02 0.0
07 06:55 E 22 12.87 Overcast OVC010 21 18 83% 76.05 0.0
07 06:35 NE 20 12.87 Overcast OVC011 21 18 83% 76.05 0.0
07 06:15 NE 19 G 30 12.87 Overcast OVC011 21 18 83% 76.05 0.0
07 05:55 E 22 11.27 Overcast OVC010 21 18 83% 76.02 0.0
07 05:35 NE 19 11.27 Overcast BKN010 OVC026 21 18 83% 76.02 0.0
07 05:15 NE 17 G 30 9.66 Overcast with Haze SCT010 OVC026 21 18 83% 76.02 0.0
07 04:55 E 17 G 31 11.27 Overcast OVC010 21 18 83% 76 0.0
07 04:35 NE 20 G 31 12.87 Overcast OVC011 21 18 83% 76 0.0
07 04:15 NE 22 12.87 Overcast OVC011 22 18 78% 76 0.0
07 03:55 NE 24 14.48 Overcast OVC012 22 18 78% 76.02 0.0
07 03:35 E 20 G 30 14.48 Overcast OVC012 22 18 78% 76 0.0
07 03:15 E 20 16.09 Mostly Cloudy BKN012 22 18 78% 76 0.0
07 02:55 NE 19 G 28 14.48 A Few Clouds FEW012 FEW022 22 18 78% 76 0.0
07 02:35 NE 19 G 35 14.48 A Few Clouds FEW022 22 18 78% 76 0.0
07 02:15 NE 22 G 31 11.27 Fair CLR 22 18 78% 76 0.0
07 01:55 NE 19 G 30 11.27 Fair CLR 23 19 78% 76 0.0
07 01:35 NE 24 11.27 Fair CLR 23 19 78% 76.02 0.0
07 01:15 E 20 11.27 Fair CLR 23 20 83% 76.02 0.0
07 00:55 E 15 G 31 11.27 Fair CLR 24 20 78% 24 76 0.0
07 00:35 E 17 G 30 11.27 Fair CLR 24 20 78% 24 76 0.0
07 00:15 E 15 G 30 11.27 Fair CLR 25 21 79% 26 75.97 0.0
06 23:55 E 17 G 28 11.27 Fair CLR 25 21 79% 26 75.97 0.0
06 23:35 NE 20 G 33 11.27 Fair CLR 26 21 74% 27 75.95 0.0
06 23:15 NE 19 G 30 9.66 Fair with Haze CLR 26 22 79% 28 75.92 0.0
06 22:55 NE 19 8.05 Fair with Haze CLR 27 23 79% 30 75.9 0.0
06 22:35 NE 13 9.66 Fair with Haze CLR 27 23 79% 30 75.87 0.0
06 22:15 NE 11 9.66 Fair with Haze CLR 27 23 79% 30 75.84 0.0
06 21:55 NE 11 11.27 Fair CLR 28 23 74% 31 75.82 0.0
06 21:35 NE 9 9.66 Fair with Haze CLR 28 23 74% 31 75.79 0.0
06 21:15 NE 9 16.09 Fair CLR 28 23 74% 31 75.77 0.0
06 20:55 E 11 14.48 Fair CLR 29 23 70% 33 75.77 0.0
06 20:35 E 13 9.66 Fair with Haze CLR 29 23 70% 33 75.74 0.0
06 20:15 NE 11 G 20 8.05 Fair with Haze CLR 30 23 66% 34 75.74 0.0
06 19:55 NE 15 8.05 A Few Clouds with Haze FEW037 30 23 66% 34 75.69 0.0
06 19:35 NE 17 9.66 Partly Cloudy with Haze SCT037 30 23 66% 34 75.69 0.0
06 19:15 NE 20 8.05 A Few Clouds with Haze FEW037 31 23 62% 35 75.67 0.0
06 18:55 NE 20 8.05 Fair with Haze CLR 32 23 59% 37 75.67 0.0
06 18:35 NE 19 G 30 8.05 Fair with Haze CLR 32 23 59% 37 75.64 0.0
06 18:15 E 17 G 30 8.05 Fair with Haze CLR 32 23 59% 37 75.59 0.0
06 17:55 NE 22 8.05 Fair with Haze CLR 32 23 59% 37 75.59 0.0
06 17:35 NE 22 G 35 9.66 A Few Clouds with Haze FEW042 32 23 59% 37 75.57 0.0
06 17:15 NE 17 G 31 8.05 Fair with Haze CLR 33 23 56% 38 75.59 0.0
06 16:55 NE 19 8.05 Fair with Haze CLR 33 23 56% 38 75.59 0.0
06 16:35 N 13 G 26 8.05 Fair with Haze CLR 32 23 59% 37 75.59 0.0
06 16:15 NE 17 G 26 8.05 A Few Clouds with Haze FEW036 FEW044 32 23 59% 37 75.62 0.0
06 15:55 NE 17 G 26 8.05 A Few Clouds with Haze FEW031 FEW041 31 24 66% 37 75.64 0.0
06 15:35 E 13 G 26 8.05 Partly Cloudy with Haze SCT030 SCT041 SCT047 31 24 66% 37 75.67 0.0
06 15:15 Vrbl 11 G 24 8.05 Mostly Cloudy with Haze SCT029 BKN036 BKN046 30 24 70% 35 75.67 0.0
06 14:55 E 11 6.44 Mostly Cloudy with Haze SCT029 BKN037 31 24 66% 37 75.69 0.0
06 14:35 E 13 G 22 6.44 Partly Cloudy with Haze SCT027 30 24 70% 35 75.72 0.0
06 14:15 NE 11 G 20 8.05 Overcast with Haze BKN027 OVC033 29 24 74% 34 75.74 0.0
06 13:55 N 11 6.44 Mostly Cloudy with Haze SCT026 BKN030 BKN037 29 24 74% 34 75.74 0.0
06 13:35 Vrbl 9 6.44 Partly Cloudy with Haze FEW021 SCT025 SCT036 29 24 74% 34 75.77 0.0
06 13:15 Vrbl 9 6.44 Overcast with Haze BKN021 OVC025 28 24 79% 32 75.77 0.0
06 12:55 N 13 6.44 Overcast with Haze BKN022 OVC026 28 24 79% 32 75.79 0.0
06 12:35 Calm 6.44 Overcast with Haze OVC024 28 24 79% 32 75.82 0.0
06 12:15 NE 7 6.44 Overcast with Haze OVC023 27 24 84% 30 75.79 0.0
06 11:55 Vrbl 6 6.44 Overcast with Haze OVC024 27 24 84% 30 75.79 0.0
06 11:35 Calm 4.83 Overcast with Haze FEW020 OVC026 27 24 84% 30 75.77 0.0
06 11:15 Vrbl 6 6.44 Overcast with Haze OVC020 27 24 84% 30 75.74 0.0
06 10:55 E 6 8.05 Overcast with Haze BKN018 OVC024 27 24 84% 30 75.74 0.0
06 10:35 Calm 8.05 Overcast with Haze SCT017 OVC023 27 24 84% 30 75.72 0.0
06 10:15 SE 6 8.05 Overcast with Haze OVC022 27 24 84% 30 75.69 0.0
06 09:55 S 6 8.05 Overcast with Haze OVC019 26 24 89% 28 75.69 0.0
06 09:35 Calm 8.05 Fog/Mist OVC016 26 24 89% 28 75.69 0.0
06 09:15 S 7 8.05 Fog/Mist BKN015 26 24 89% 28 75.69 0.0
06 08:55 Calm 8.05 Fog/Mist BKN016 26 24 89% 28 75.69 0.0
06 08:35 S 9 8.05 Fog/Mist OVC016 26 24 89% 28 75.67 0.0
06 08:15 S 9 8.05 Fog/Mist OVC016 26 24 89% 28 75.67 0.0
06 07:55 Vrbl 7 8.05 Fog/Mist BKN017 26 24 89% 28 75.64 0.0
06 07:35 SE 13 8.05 Fog/Mist BKN018 26 23 84% 28 75.62 0.0
06 07:15 SE 13 9.66 Fog/Mist OVC017 26 23 84% 28 75.62 0.0
06 06:55 SE 11 11.27 Overcast OVC016 26 23 84% 28 75.62 0.0
06 06:35 Calm 11.27 Overcast OVC017 26 23 84% 28 75.59 0.0
06 06:15 SE 13 11.27 Overcast OVC017 26 23 84% 28 75.59 0.0
06 05:55 SE 9 11.27 Overcast OVC016 26 24 89% 28 75.57 0.0
06 05:35 SE 7 11.27 Overcast OVC016 26 23 84% 28 75.57 0.0
06 04:55 E 7 11.27 Overcast OVC016 26 24 89% 28 75.57 0.0
06 04:35 Vrbl 7 G 19 11.27 Overcast OVC016 26 24 89% 28 75.57 0.0
06 04:15 SE 17 11.27 Overcast OVC016 26 24 89% 28 75.54 0.0
06 03:55 E 6 12.87 Overcast OVC016 26 24 89% 28 75.54 0.0
06 03:35 E 11 12.87 Mostly Cloudy BKN017 25 23 89% 26 75.54 0.0
06 03:15 E 9 12.87 Partly Cloudy SCT018 26 23 84% 28 75.54 0.0
06 02:55 SE 13 G 22 12.87 Mostly Cloudy BKN020 26 23 84% 28 75.54 0.0
06 02:35 SE 17 14.48 Overcast OVC021 26 23 84% 28 75.54 0.0
06 02:15 SE 17 14.48 Overcast OVC024 27 23 79% 30 75.54 0.0
06 01:55 SE 17 G 30 14.48 Mostly Cloudy BKN026 27 23 79% 30 75.54 0.0
06 01:35 SE 19 G 30 14.48 A Few Clouds FEW026 27 23 79% 30 75.54 0.0
06 01:15 SE 15 G 26 14.48 Fair CLR 28 23 74% 31 75.51 0.0
06 00:55 SE 19 14.48 Fair CLR 28 23 74% 31 75.51 0.0
06 00:35 SE 17 G 28 16.09 Fair CLR 29 23 70% 33 75.51 0.0
06 00:15 E 15 G 26 16.09 Fair CLR 29 23 70% 33 75.49 0.0
05 23:55 SE 17 G 28 16.09 Fair CLR 29 23 70% 33 75.49 0.0
05 23:35 E 11 16.09 Fair CLR 29 22 66% 32 75.49 0.0
05 23:15 E 13 16.09 Fair CLR 30 22 62% 33 75.46 0.0
05 22:55 E 7 16.09 Fair CLR 29 22 66% 32 75.46 0.0
05 22:35 NE 9 16.09 Fair CLR 30 22 62% 33 75.44 0.0
05 22:15 NE 11 16.09 Fair CLR 30 22 62% 33 75.41 0.0
05 21:55 NE 11 16.09 Fair CLR 31 21 55% 34 75.39 0.0
05 21:35 NE 11 16.09 Fair CLR 31 21 55% 34 75.36 0.0
05 21:15 E 13 16.09 Fair CLR 31 21 55% 34 75.36 0.0
05 20:55 NE 11 16.09 Fair CLR 32 20 49% 34 75.34 0.0
05 20:35 NE 9 16.09 Fair CLR 32 21 52% 35 75.31 0.0
05 20:15 NE 7 16.09 Fair CLR 33 20 46% 35 75.29 0.0
05 19:55 NE 9 16.09 Fair CLR 35 20 41% 38 75.26 0.0
05 19:35 NE 9 16.09 Fair CLR 35 20 41% 38 75.26 0.0
05 19:15 NE 9 G 19 16.09 Fair CLR 35 20 41% 38 75.26 0.0
05 18:55 E 9 16.09 Fair CLR 36 20 39% 39 75.26 0.0
05 18:35 E 15 G 26 16.09 Fair CLR 36 19 37% 38 75.26 0.0
05 18:15 E 15 16.09 Fair CLR 36 20 39% 39 75.26 0.0
05 17:55 E 9 16.09 Fair CLR 36 20 39% 39 75.26 0.0
05 17:35 E 9 G 22 16.09 Fair CLR 36 20 39% 39 75.26 0.0
05 17:15 Vrbl 9 G 19 16.09 Fair CLR 36 20 39% 39 75.29 0.0
05 16:55 Vrbl 6 16.09 Fair CLR 36 20 39% 39 75.31 0.0
05 16:35 Vrbl 6 16.09 Fair CLR 36 21 42% 40 75.34 0.0
05 16:15 Vrbl 7 16.09 Fair CLR 35 21 44% 38 75.36 0.0
05 15:55 Calm 16.09 Fair CLR 36 21 42% 40 75.39 0.0
05 15:35 SE 13 16.09 Fair CLR 35 21 44% 38 75.41 0.0
05 15:15 Vrbl 7 G 19 16.09 Fair CLR 34 20 44% 36 75.44 0.0
05 14:55 SW 15 16.09 Fair CLR 34 21 47% 37 75.44 0.0
05 14:35 Vrbl 11 16.09 Fair CLR 34 22 50% 38 75.46 0.0
05 14:15 S 17 11.27 Fair CLR 33 22 52% 37 75.49 0.0
05 13:55 SW 13 9.66 Fair with Haze CLR 33 22 52% 37 75.51 0.0
05 13:35 S 15 9.66 Fair with Haze CLR 32 22 55% 36 75.54 0.0
05 13:15 SE 11 9.66 Fair with Haze CLR 31 22 59% 35 75.57 0.0
05 12:55 Vrbl 9 9.66 Fair with Haze CLR 31 22 59% 35 75.59 0.0
05 12:35 SE 15 11.27 Fair CLR 30 22 62% 33 75.59 0.0
05 12:15 S 9 G 22 9.66 Fair with Haze CLR 30 22 62% 33 75.62 0.0
05 11:55 SE 13 9.66 Fair with Haze CLR 29 22 66% 32 75.62 0.0
05 11:35 SE 13 G 22 11.27 Fair CLR 28 22 70% 31 75.62 0.0
05 11:15 S 11 G 22 11.27 Fair CLR 28 22 70% 31 75.62 0.0
05 10:55 Vrbl 11 G 20 11.27 A Few Clouds FEW018 27 22 74% 29 75.64 0.0
05 10:35 SE 9 9.66 A Few Clouds with Haze FEW017 26 22 79% 28 75.64 0.0
05 10:15 Vrbl 6 11.27 Partly Cloudy SCT013 25 22 83% 26 75.64 0.0
05 09:55 SE 11 9.66 Overcast with Haze OVC013 25 22 83% 26 75.67 0.0
05 09:35 S 15 9.66 Fog/Mist OVC013 24 22 89% 24 75.67 0.0
05 09:15 S 13 9.66 Fog/Mist OVC013 24 22 89% 24 75.67 0.0
05 08:55 S 15 9.66 Fog/Mist OVC012 23 22 94% 75.67 0.0
05 08:35 S 11 G 20 9.66 Fog/Mist OVC012 23 22 94% 75.64 0.0
05 08:15 S 11 9.66 Fog/Mist OVC011 23 22 94% 75.64 0.0
05 07:55 S 9 9.66 Fog/Mist OVC011 23 21 89% 75.64 0.0
05 07:35 S 9 9.66 Fog/Mist OVC011 22 21 94% 75.62 0.0
05 07:15 S 13 9.66 Fog/Mist OVC010 22 21 94% 75.59 0.0
05 06:55 SE 11 12.87 Overcast OVC010 22 21 94% 75.59 0.0
05 06:35 S 11 12.87 Overcast OVC010 22 21 94% 75.57 0.0
05 06:15 S 11 11.27 Overcast OVC011 22 21 94% 75.57 0.0
05 05:55 S 11 G 28 12.87 Overcast OVC011 22 21 94% 75.57 0.0
05 05:35 S 15 G 30 12.87 Overcast OVC011 22 21 94% 75.57 0.0
05 05:15 S 24 G 39 12.87 Overcast OVC011 22 21 94% 75.57 0.0
05 04:55 S 19 12.87 Overcast OVC011 22 21 94% 75.57 0.0
05 04:35 SE 24 12.87 Overcast OVC011 22 21 94% 75.57 0.0
05 04:15 S 24 G 35 12.87 Overcast OVC011 22 21 94% 75.57 0.0
05 03:55 S 19 12.87 Overcast OVC013 22 21 94% 75.57 0.0
05 03:35 S 19 12.87 Mostly Cloudy BKN013 22 21 94% 75.59 0.0
05 03:15 SE 13 G 24 12.87 A Few Clouds FEW015 22 21 94% 75.62 0.0
05 02:55 S 19 G 30 12.87 Fair CLR 23 21 89% 75.64 0.0
05 02:35 S 15 G 35 12.87 Fair CLR 23 21 89% 75.64 0.0
05 02:15 S 19 G 28 12.87 Fair CLR 23 21 89% 75.67 0.0
05 01:55 SE 17 G 26 12.87 Fair CLR 23 21 89% 75.69 0.0
05 01:35 SE 17 12.87 Fair CLR 23 21 89% 75.72 0.0
05 01:15 SE 13 12.87 Fair CLR 23 21 89% 75.72 0.0
05 00:55 SE 15 12.87 Fair CLR 24 21 83% 24 75.72 0.0
05 00:35 SE 13 14.48 Fair CLR 24 20 78% 24 75.74 0.0
05 00:15 SE 13 12.87 Fair CLR 24 20 78% 24 75.74 0.0
04 23:55 SE 13 G 22 14.48 Fair CLR 24 20 78% 24 75.74 0.0
04 23:35 SE 11 14.48 Fair CLR 24 20 78% 24 75.77 0.0
Date Time (cdt) Wind (kph) Vis. (km) Weather Sky Cond. Air Dwpt Max. Min. Relative Humidity Wind Chill (°C) Heat Index (°C) altimeter (cm) sea level (mb) 1 hr 3 hr 6 hr
6 hour
Temperature (ºC) Pressure Precipitation (cm)